sensor_id;sensor_type;location;lat;lon;timestamp;noise_LAeq;noise_LA_min;noise_LA_max;noise_LA01;noise_LA95
43787;Laerm;29409;49.306;8.500;2022-12-29T00:01:17;39.41;35.04;42.76;;
43787;Laerm;29409;49.306;8.500;2022-12-29T00:02:54;39.67;36.20;42.09;;
43787;Laerm;29409;49.306;8.500;2022-12-29T00:04:32;39.66;34.31;42.22;;
43787;Laerm;29409;49.306;8.500;2022-12-29T00:06:10;40.06;35.04;44.59;;
43787;Laerm;29409;49.306;8.500;2022-12-29T00:07:48;40.02;34.69;43.04;;
43787;Laerm;29409;49.306;8.500;2022-12-29T00:09:26;39.29;35.36;41.96;;
43787;Laerm;29409;49.306;8.500;2022-12-29T00:11:05;39.71;35.04;43.90;;
43787;Laerm;29409;49.306;8.500;2022-12-29T00:12:44;39.40;35.94;42.47;;
43787;Laerm;29409;49.306;8.500;2022-12-29T00:14:41;39.59;35.94;44.07;;
43787;Laerm;29409;49.306;8.500;2022-12-29T00:16:40;39.16;35.36;41.96;;
43787;Laerm;29409;49.306;8.500;2022-12-29T00:18:18;39.77;35.66;48.23;;
43787;Laerm;29409;49.306;8.500;2022-12-29T00:19:56;38.91;35.04;41.30;;
43787;Laerm;29409;49.306;8.500;2022-12-29T00:21:52;39.98;35.04;45.86;;
43787;Laerm;29409;49.306;8.500;2022-12-29T00:23:54;40.22;35.66;42.88;;
43787;Laerm;29409;49.306;8.500;2022-12-29T00:26:12;39.60;36.20;42.35;;
43787;Laerm;29409;49.306;8.500;2022-12-29T00:28:09;39.49;34.69;42.03;;
43787;Laerm;29409;49.306;8.500;2022-12-29T00:30:13;39.59;36.20;42.53;;
43787;Laerm;29409;49.306;8.500;2022-12-29T00:32:10;39.93;35.36;42.41;;
43787;Laerm;29409;49.306;8.500;2022-12-29T00:34:09;39.88;36.45;42.22;;
43787;Laerm;29409;49.306;8.500;2022-12-29T00:37:51;39.79;36.20;44.19;;
43787;Laerm;29409;49.306;8.500;2022-12-29T00:39:48;40.18;36.69;42.29;;
43787;Laerm;29409;49.306;8.500;2022-12-29T00:41:47;40.33;36.45;43.68;;
43787;Laerm;29409;49.306;8.500;2022-12-29T00:43:45;39.96;35.94;43.04;;
43787;Laerm;29409;49.306;8.500;2022-12-29T00:45:42;40.31;36.91;43.54;;
43787;Laerm;29409;49.306;8.500;2022-12-29T00:47:20;40.52;35.66;46.45;;
43787;Laerm;29409;49.306;8.500;2022-12-29T00:48:57;40.06;35.94;43.49;;
43787;Laerm;29409;49.306;8.500;2022-12-29T00:50:55;39.89;36.20;44.94;;
43787;Laerm;29409;49.306;8.500;2022-12-29T00:52:33;39.94;35.94;43.29;;
43787;Laerm;29409;49.306;8.500;2022-12-29T00:54:11;39.64;35.36;42.35;;
43787;Laerm;29409;49.306;8.500;2022-12-29T00:55:49;39.94;36.20;44.65;;
43787;Laerm;29409;49.306;8.500;2022-12-29T00:57:27;40.27;35.94;42.98;;
43787;Laerm;29409;49.306;8.500;2022-12-29T00:59:05;40.26;35.66;43.34;;
43787;Laerm;29409;49.306;8.500;2022-12-29T01:00:44;39.96;35.66;42.59;;
43787;Laerm;29409;49.306;8.500;2022-12-29T01:02:21;39.90;36.69;42.35;;
43787;Laerm;29409;49.306;8.500;2022-12-29T01:03:59;39.46;35.94;42.76;;
43787;Laerm;29409;49.306;8.500;2022-12-29T01:05:37;39.89;35.66;42.47;;
43787;Laerm;29409;49.306;8.500;2022-12-29T01:07:16;39.88;36.45;43.29;;
43787;Laerm;29409;49.306;8.500;2022-12-29T01:08:54;39.75;35.36;43.72;;
43787;Laerm;29409;49.306;8.500;2022-12-29T01:11:00;40.01;36.20;47.04;;
43787;Laerm;29409;49.306;8.500;2022-12-29T01:12:38;40.01;36.20;53.30;;
43787;Laerm;29409;49.306;8.500;2022-12-29T01:14:20;42.76;36.20;59.36;;
43787;Laerm;29409;49.306;8.500;2022-12-29T01:15:57;41.07;36.69;60.89;;
43787;Laerm;29409;49.306;8.500;2022-12-29T01:17:35;44.30;38.37;60.07;;
43787;Laerm;29409;49.306;8.500;2022-12-29T01:19:14;43.21;37.32;59.65;;
43787;Laerm;29409;49.306;8.500;2022-12-29T01:21:02;40.74;37.12;43.90;;
43787;Laerm;29409;49.306;8.500;2022-12-29T01:22:41;41.08;37.88;50.15;;
43787;Laerm;29409;49.306;8.500;2022-12-29T01:24:21;45.85;37.87;62.01;;
43787;Laerm;29409;49.306;8.500;2022-12-29T01:26:10;48.14;38.81;66.01;;
43787;Laerm;29409;49.306;8.500;2022-12-29T01:27:48;42.44;37.70;63.03;;
43787;Laerm;29409;49.306;8.500;2022-12-29T01:29:26;43.78;37.32;59.37;;
43787;Laerm;29409;49.306;8.500;2022-12-29T01:31:04;42.88;38.37;55.33;;
43787;Laerm;29409;49.306;8.500;2022-12-29T01:32:41;41.80;38.05;58.38;;
43787;Laerm;29409;49.306;8.500;2022-12-29T01:34:19;43.50;38.52;60.31;;
43787;Laerm;29409;49.306;8.500;2022-12-29T01:36:01;43.52;38.67;55.88;;
43787;Laerm;29409;49.306;8.500;2022-12-29T01:37:39;42.64;38.81;60.84;;
43787;Laerm;29409;49.306;8.500;2022-12-29T01:39:16;45.75;38.37;65.88;;
43787;Laerm;29409;49.306;8.500;2022-12-29T01:40:55;52.96;40.43;71.04;;
43787;Laerm;29409;49.306;8.500;2022-12-29T01:42:33;46.60;40.33;63.92;;
43787;Laerm;29409;49.306;8.500;2022-12-29T01:46:12;57.58;40.62;81.61;;
43787;Laerm;29409;49.306;8.500;2022-12-29T01:47:52;44.95;38.67;63.47;;
43787;Laerm;29409;49.306;8.500;2022-12-29T01:49:32;43.93;38.95;60.12;;
43787;Laerm;29409;49.306;8.500;2022-12-29T01:51:09;51.38;38.67;71.19;;
43787;Laerm;29409;49.306;8.500;2022-12-29T01:53:07;48.98;39.81;65.55;;
43787;Laerm;29409;49.306;8.500;2022-12-29T01:54:48;46.09;40.13;60.19;;
43787;Laerm;29409;49.306;8.500;2022-12-29T01:56:28;44.91;40.89;55.58;;
43787;Laerm;29409;49.306;8.500;2022-12-29T01:58:07;46.94;40.13;68.50;;
43787;Laerm;29409;49.306;8.500;2022-12-29T01:59:50;47.43;40.23;64.69;;
43787;Laerm;29409;49.306;8.500;2022-12-29T02:01:30;43.82;38.67;65.31;;
43787;Laerm;29409;49.306;8.500;2022-12-29T02:03:08;44.98;38.95;63.33;;
43787;Laerm;29409;49.306;8.500;2022-12-29T02:04:46;47.04;40.03;66.16;;
43787;Laerm;29409;49.306;8.500;2022-12-29T02:06:33;52.99;39.70;73.24;;
43787;Laerm;29409;49.306;8.500;2022-12-29T02:08:14;50.77;36.69;79.24;;
43787;Laerm;29409;49.306;8.500;2022-12-29T02:09:52;42.42;38.67;51.69;;
43787;Laerm;29409;49.306;8.500;2022-12-29T02:11:31;44.93;38.67;62.29;;
43787;Laerm;29409;49.306;8.500;2022-12-29T02:13:09;43.76;38.37;59.64;;
43787;Laerm;29409;49.306;8.500;2022-12-29T02:14:47;50.03;38.95;70.87;;
43787;Laerm;29409;49.306;8.500;2022-12-29T02:20:11;42.09;36.91;56.04;;
43787;Laerm;29409;49.306;8.500;2022-12-29T02:30:59;43.72;38.95;57.75;;
43787;Laerm;29409;49.306;8.500;2022-12-29T02:33:00;48.87;37.32;71.45;;
43787;Laerm;29409;49.306;8.500;2022-12-29T02:34:58;43.92;38.95;63.22;;
43787;Laerm;29409;49.306;8.500;2022-12-29T02:40:41;46.92;38.32;72.99;;
43787;Laerm;29409;49.306;8.500;2022-12-29T02:44:11;48.20;38.81;67.73;;
43787;Laerm;29409;49.306;8.500;2022-12-29T02:46:11;42.67;37.70;57.43;;
43787;Laerm;29409;49.306;8.500;2022-12-29T02:47:54;44.75;36.45;63.51;;
43787;Laerm;29409;49.306;8.500;2022-12-29T02:49:40;49.94;36.91;69.39;;
43787;Laerm;29409;49.306;8.500;2022-12-29T02:53:24;41.34;36.91;51.93;;
43787;Laerm;29409;49.306;8.500;2022-12-29T02:55:21;42.43;36.45;58.88;;
43787;Laerm;29409;49.306;8.500;2022-12-29T02:56:59;39.86;36.45;43.14;;
43787;Laerm;29409;49.306;8.500;2022-12-29T02:58:37;40.33;36.10;48.31;;
43787;Laerm;29409;49.306;8.500;2022-12-29T03:00:16;40.15;35.36;51.03;;
43787;Laerm;29409;49.306;8.500;2022-12-29T03:02:02;41.65;35.36;61.48;;
43787;Laerm;29409;49.306;8.500;2022-12-29T03:09:15;39.81;33.90;44.47;;
43787;Laerm;29409;49.306;8.500;2022-12-29T03:16:57;39.49;35.04;48.10;;
43787;Laerm;29409;49.306;8.500;2022-12-29T03:18:39;39.48;33.90;44.51;;
43787;Laerm;29409;49.306;8.500;2022-12-29T03:20:19;39.63;35.36;43.39;;
43787;Laerm;29409;49.306;8.500;2022-12-29T03:22:01;39.30;33.90;42.47;;
43787;Laerm;29409;49.306;8.500;2022-12-29T03:23:57;39.93;33.90;43.99;;
43787;Laerm;29409;49.306;8.500;2022-12-29T03:25:37;39.40;35.66;43.72;;
43787;Laerm;29409;49.306;8.500;2022-12-29T03:27:19;39.36;35.04;42.22;;
43787;Laerm;29409;49.306;8.500;2022-12-29T03:28:57;39.40;34.31;45.04;;
43787;Laerm;29409;49.306;8.500;2022-12-29T03:30:35;39.50;35.36;44.83;;
43787;Laerm;29409;49.306;8.500;2022-12-29T03:32:13;39.59;34.31;42.22;;
43787;Laerm;29409;49.306;8.500;2022-12-29T03:33:52;39.92;33.90;45.33;;
43787;Laerm;29409;49.306;8.500;2022-12-29T03:35:32;40.35;36.56;44.83;;
43787;Laerm;29409;49.306;8.500;2022-12-29T03:37:11;39.68;35.66;50.70;;
43787;Laerm;29409;49.306;8.500;2022-12-29T03:38:52;39.86;35.36;49.11;;
43787;Laerm;29409;49.306;8.500;2022-12-29T03:40:33;40.10;35.66;44.73;;
43787;Laerm;29409;49.306;8.500;2022-12-29T03:42:13;39.93;35.36;42.53;;
43787;Laerm;29409;49.306;8.500;2022-12-29T03:43:53;39.90;36.45;48.85;;
43787;Laerm;29409;49.306;8.500;2022-12-29T03:45:31;42.72;36.45;57.06;;
43787;Laerm;29409;49.306;8.500;2022-12-29T03:47:10;40.43;35.36;45.75;;
43787;Laerm;29409;49.306;8.500;2022-12-29T03:48:48;40.90;35.94;55.17;;
43787;Laerm;29409;49.306;8.500;2022-12-29T03:50:26;40.26;35.04;43.14;;
43787;Laerm;29409;49.306;8.500;2022-12-29T03:52:04;40.11;36.56;45.33;;
43787;Laerm;29409;49.306;8.500;2022-12-29T03:53:42;40.57;35.66;47.79;;
43787;Laerm;29409;49.306;8.500;2022-12-29T03:55:20;40.63;35.36;56.86;;
43787;Laerm;29409;49.306;8.500;2022-12-29T03:56:57;39.25;34.69;45.77;;
43787;Laerm;29409;49.306;8.500;2022-12-29T03:58:35;39.65;34.31;42.59;;
43787;Laerm;29409;49.306;8.500;2022-12-29T04:00:14;39.84;32.35;45.97;;
43787;Laerm;29409;49.306;8.500;2022-12-29T04:01:51;39.26;34.34;42.29;;
43787;Laerm;29409;49.306;8.500;2022-12-29T04:03:29;39.38;35.04;46.07;;
43787;Laerm;29409;49.306;8.500;2022-12-29T04:05:07;39.71;34.31;43.63;;
43787;Laerm;29409;49.306;8.500;2022-12-29T04:06:47;39.61;35.04;43.34;;
43787;Laerm;29409;49.306;8.500;2022-12-29T04:08:24;39.50;34.31;43.19;;
43787;Laerm;29409;49.306;8.500;2022-12-29T04:10:02;39.84;35.94;43.49;;
43787;Laerm;29409;49.306;8.500;2022-12-29T04:11:40;40.21;35.36;48.46;;
43787;Laerm;29409;49.306;8.500;2022-12-29T04:13:18;40.01;36.10;45.33;;
43787;Laerm;29409;49.306;8.500;2022-12-29T04:14:56;40.24;35.94;48.52;;
43787;Laerm;29409;49.306;8.500;2022-12-29T04:16:34;42.32;35.36;58.12;;
43787;Laerm;29409;49.306;8.500;2022-12-29T04:18:13;40.71;36.45;49.94;;
43787;Laerm;29409;49.306;8.500;2022-12-29T04:19:51;40.63;36.20;51.82;;
43787;Laerm;29409;49.306;8.500;2022-12-29T04:21:29;40.38;35.66;52.02;;
43787;Laerm;29409;49.306;8.500;2022-12-29T04:23:06;40.05;35.31;47.02;;
43787;Laerm;29409;49.306;8.500;2022-12-29T04:24:44;39.82;35.94;42.82;;
43787;Laerm;29409;49.306;8.500;2022-12-29T04:26:22;41.19;36.69;51.32;;
43787;Laerm;29409;49.306;8.500;2022-12-29T04:28:00;44.84;36.45;61.61;;
43787;Laerm;29409;49.306;8.500;2022-12-29T04:29:38;42.46;36.91;60.95;;
43787;Laerm;29409;49.306;8.500;2022-12-29T04:31:15;41.08;36.45;50.60;;
43787;Laerm;29409;49.306;8.500;2022-12-29T04:32:53;41.81;36.34;57.39;;
43787;Laerm;29409;49.306;8.500;2022-12-29T04:34:31;40.62;36.45;53.47;;
43787;Laerm;29409;49.306;8.500;2022-12-29T04:36:09;39.71;35.36;46.95;;
43787;Laerm;29409;49.306;8.500;2022-12-29T04:37:47;42.97;36.20;62.47;;
43787;Laerm;29409;49.306;8.500;2022-12-29T04:39:25;41.15;36.20;56.47;;
43787;Laerm;29409;49.306;8.500;2022-12-29T04:41:03;40.14;35.94;44.51;;
43787;Laerm;29409;49.306;8.500;2022-12-29T04:42:42;40.38;36.45;48.28;;
43787;Laerm;29409;49.306;8.500;2022-12-29T04:44:20;39.84;35.04;45.20;;
43787;Laerm;29409;49.306;8.500;2022-12-29T04:45:57;40.16;35.94;45.77;;
43787;Laerm;29409;49.306;8.500;2022-12-29T04:47:35;41.73;36.56;55.75;;
43787;Laerm;29409;49.306;8.500;2022-12-29T04:49:13;40.73;36.45;51.76;;
43787;Laerm;29409;49.306;8.500;2022-12-29T04:50:51;39.16;35.04;42.65;;
43787;Laerm;29409;49.306;8.500;2022-12-29T04:52:29;41.97;35.94;57.08;;
43787;Laerm;29409;49.306;8.500;2022-12-29T04:54:07;41.39;35.36;53.58;;
43787;Laerm;29409;49.306;8.500;2022-12-29T04:55:47;39.88;32.35;50.56;;
43787;Laerm;29409;49.306;8.500;2022-12-29T04:57:25;39.73;35.66;45.46;;
43787;Laerm;29409;49.306;8.500;2022-12-29T04:59:03;39.68;35.36;46.71;;
43787;Laerm;29409;49.306;8.500;2022-12-29T05:00:42;40.77;36.10;54.63;;
43787;Laerm;29409;49.306;8.500;2022-12-29T05:02:19;42.36;35.66;57.77;;
43787;Laerm;29409;49.306;8.500;2022-12-29T05:03:57;40.78;36.69;47.88;;
43787;Laerm;29409;49.306;8.500;2022-12-29T05:05:35;41.33;36.20;49.08;;
43787;Laerm;29409;49.306;8.500;2022-12-29T05:07:13;39.81;36.45;42.22;;
43787;Laerm;29409;49.306;8.500;2022-12-29T05:08:51;40.11;36.69;47.30;;
43787;Laerm;29409;49.306;8.500;2022-12-29T05:10:29;40.58;36.91;48.39;;
43787;Laerm;29409;49.306;8.500;2022-12-29T05:12:07;40.71;36.20;57.61;;
43787;Laerm;29409;49.306;8.500;2022-12-29T05:13:45;40.55;36.69;47.48;;
43787;Laerm;29409;49.306;8.500;2022-12-29T05:15:23;40.75;36.69;45.99;;
43787;Laerm;29409;49.306;8.500;2022-12-29T05:17:02;42.00;35.94;59.34;;
43787;Laerm;29409;49.306;8.500;2022-12-29T05:18:40;40.44;37.12;47.00;;
43787;Laerm;29409;49.306;8.500;2022-12-29T05:20:18;41.14;36.45;49.10;;
43787;Laerm;29409;49.306;8.500;2022-12-29T05:21:56;40.38;36.98;44.69;;
43787;Laerm;29409;49.306;8.500;2022-12-29T05:23:34;39.81;36.20;48.28;;
43787;Laerm;29409;49.306;8.500;2022-12-29T05:25:12;46.10;37.12;63.59;;
43787;Laerm;29409;49.306;8.500;2022-12-29T05:26:50;39.83;35.66;46.45;;
43787;Laerm;29409;49.306;8.500;2022-12-29T05:28:28;39.63;35.94;44.47;;
43787;Laerm;29409;49.306;8.500;2022-12-29T05:30:06;40.42;35.94;49.44;;
43787;Laerm;29409;49.306;8.500;2022-12-29T05:31:44;41.69;35.94;53.27;;
43787;Laerm;29409;49.306;8.500;2022-12-29T05:33:22;40.13;36.20;47.46;;
43787;Laerm;29409;49.306;8.500;2022-12-29T05:35:00;41.33;36.69;56.09;;
43787;Laerm;29409;49.306;8.500;2022-12-29T05:36:39;39.99;35.66;50.99;;
43787;Laerm;29409;49.306;8.500;2022-12-29T05:38:17;42.04;36.69;56.01;;
43787;Laerm;29409;49.306;8.500;2022-12-29T05:39:55;41.05;36.91;55.43;;
43787;Laerm;29409;49.306;8.500;2022-12-29T05:41:34;40.85;36.69;47.77;;
43787;Laerm;29409;49.306;8.500;2022-12-29T05:43:11;40.80;36.91;47.40;;
43787;Laerm;29409;49.306;8.500;2022-12-29T05:44:49;40.80;36.20;44.39;;
43787;Laerm;29409;49.306;8.500;2022-12-29T05:46:30;40.89;36.69;47.36;;
43787;Laerm;29409;49.306;8.500;2022-12-29T05:48:08;41.19;37.32;46.71;;
43787;Laerm;29409;49.306;8.500;2022-12-29T05:49:46;40.72;37.32;46.95;;
43787;Laerm;29409;49.306;8.500;2022-12-29T05:51:24;40.93;35.66;53.91;;
43787;Laerm;29409;49.306;8.500;2022-12-29T05:53:02;40.77;36.45;46.59;;
43787;Laerm;29409;49.306;8.500;2022-12-29T05:54:40;40.84;36.69;50.79;;
43787;Laerm;29409;49.306;8.500;2022-12-29T05:56:18;40.62;36.45;47.00;;
43787;Laerm;29409;49.306;8.500;2022-12-29T05:57:56;42.44;36.45;57.83;;
43787;Laerm;29409;49.306;8.500;2022-12-29T05:59:34;45.41;36.20;67.03;;
43787;Laerm;29409;49.306;8.500;2022-12-29T06:01:12;41.27;37.52;47.46;;
43787;Laerm;29409;49.306;8.500;2022-12-29T06:02:50;40.94;37.52;46.13;;
43787;Laerm;29409;49.306;8.500;2022-12-29T06:04:28;40.79;35.94;50.30;;
43787;Laerm;29409;49.306;8.500;2022-12-29T06:06:06;40.38;36.45;43.81;;
43787;Laerm;29409;49.306;8.500;2022-12-29T06:07:44;40.86;36.45;45.60;;
43787;Laerm;29409;49.306;8.500;2022-12-29T06:09:22;40.31;36.69;46.73;;
43787;Laerm;29409;49.306;8.500;2022-12-29T06:11:01;40.32;35.04;51.74;;
43787;Laerm;29409;49.306;8.500;2022-12-29T06:12:39;41.85;37.32;51.61;;
43787;Laerm;29409;49.306;8.500;2022-12-29T06:14:17;41.00;36.69;49.67;;
43787;Laerm;29409;49.306;8.500;2022-12-29T06:15:55;40.85;37.12;45.51;;
43787;Laerm;29409;49.306;8.500;2022-12-29T06:17:34;40.55;36.91;46.23;;
43787;Laerm;29409;49.306;8.500;2022-12-29T06:19:12;43.89;37.32;59.48;;
43787;Laerm;29409;49.306;8.500;2022-12-29T06:20:50;42.63;37.52;56.15;;
43787;Laerm;29409;49.306;8.500;2022-12-29T06:22:28;40.53;36.45;45.30;;
43787;Laerm;29409;49.306;8.500;2022-12-29T06:24:06;40.53;36.69;46.28;;
43787;Laerm;29409;49.306;8.500;2022-12-29T06:25:44;40.77;36.91;45.83;;
43787;Laerm;29409;49.306;8.500;2022-12-29T06:27:24;40.70;36.69;46.62;;
43787;Laerm;29409;49.306;8.500;2022-12-29T06:29:02;41.26;36.45;44.03;;
43787;Laerm;29409;49.306;8.500;2022-12-29T06:30:42;40.27;36.69;48.84;;
43787;Laerm;29409;49.306;8.500;2022-12-29T06:32:20;42.18;36.69;53.61;;
43787;Laerm;29409;49.306;8.500;2022-12-29T06:33:58;41.24;37.17;48.87;;
43787;Laerm;29409;49.306;8.500;2022-12-29T06:35:36;41.57;36.69;52.69;;
43787;Laerm;29409;49.306;8.500;2022-12-29T06:37:14;43.94;37.12;58.43;;
43787;Laerm;29409;49.306;8.500;2022-12-29T06:38:52;41.59;37.32;52.68;;
43787;Laerm;29409;49.306;8.500;2022-12-29T06:40:31;41.79;37.12;53.01;;
43787;Laerm;29409;49.306;8.500;2022-12-29T06:42:09;45.87;39.08;66.57;;
43787;Laerm;29409;49.306;8.500;2022-12-29T06:43:47;40.91;36.20;53.40;;
43787;Laerm;29409;49.306;8.500;2022-12-29T06:45:25;48.82;37.88;65.17;;
43787;Laerm;29409;49.306;8.500;2022-12-29T06:47:03;41.95;36.69;51.32;;
43787;Laerm;29409;49.306;8.500;2022-12-29T06:48:41;41.64;36.91;48.29;;
43787;Laerm;29409;49.306;8.500;2022-12-29T06:50:20;43.14;34.31;57.27;;
43787;Laerm;29409;49.306;8.500;2022-12-29T06:51:57;41.49;36.98;50.95;;
43787;Laerm;29409;49.306;8.500;2022-12-29T06:53:37;41.70;35.66;59.14;;
43787;Laerm;29409;49.306;8.500;2022-12-29T06:55:15;40.88;35.94;45.48;;
43787;Laerm;29409;49.306;8.500;2022-12-29T06:56:54;40.59;37.12;44.87;;
43787;Laerm;29409;49.306;8.500;2022-12-29T06:58:31;40.90;35.36;53.68;;
43787;Laerm;29409;49.306;8.500;2022-12-29T07:00:10;41.66;34.69;56.11;;
43787;Laerm;29409;49.306;8.500;2022-12-29T07:01:48;42.10;37.52;49.33;;
43787;Laerm;29409;49.306;8.500;2022-12-29T07:03:26;43.06;36.91;57.84;;
43787;Laerm;29409;49.306;8.500;2022-12-29T07:05:04;40.36;36.45;45.37;;
43787;Laerm;29409;49.306;8.500;2022-12-29T07:06:42;40.85;37.32;44.62;;
43787;Laerm;29409;49.306;8.500;2022-12-29T07:08:20;41.49;35.04;49.81;;
43787;Laerm;29409;49.306;8.500;2022-12-29T07:09:58;40.84;36.69;47.74;;
43787;Laerm;29409;49.306;8.500;2022-12-29T07:11:36;40.23;36.20;45.91;;
43787;Laerm;29409;49.306;8.500;2022-12-29T07:13:15;44.77;36.69;65.09;;
43787;Laerm;29409;49.306;8.500;2022-12-29T07:14:53;40.81;36.69;44.54;;
43787;Laerm;29409;49.306;8.500;2022-12-29T07:16:31;41.13;37.70;48.88;;
43787;Laerm;29409;49.306;8.500;2022-12-29T07:18:09;40.86;36.20;51.17;;
43787;Laerm;29409;49.306;8.500;2022-12-29T07:19:47;44.12;37.32;55.51;;
43787;Laerm;29409;49.306;8.500;2022-12-29T07:21:24;43.09;38.21;49.90;;
43787;Laerm;29409;49.306;8.500;2022-12-29T07:23:02;41.14;37.32;56.56;;
43787;Laerm;29409;49.306;8.500;2022-12-29T07:24:40;40.58;35.66;45.39;;
43787;Laerm;29409;49.306;8.500;2022-12-29T07:26:20;40.55;36.91;47.18;;
43787;Laerm;29409;49.306;8.500;2022-12-29T07:27:58;40.99;36.91;45.27;;
43787;Laerm;29409;49.306;8.500;2022-12-29T07:29:37;40.68;37.35;45.75;;
43787;Laerm;29409;49.306;8.500;2022-12-29T07:31:16;41.19;37.12;49.65;;
43787;Laerm;29409;49.306;8.500;2022-12-29T07:32:55;40.42;36.69;50.59;;
43787;Laerm;29409;49.306;8.500;2022-12-29T07:34:33;41.64;36.45;55.59;;
43787;Laerm;29409;49.306;8.500;2022-12-29T07:36:11;41.15;37.70;45.80;;
43787;Laerm;29409;49.306;8.500;2022-12-29T07:37:49;41.03;37.88;48.10;;
43787;Laerm;29409;49.306;8.500;2022-12-29T07:39:27;43.55;37.32;54.58;;
43787;Laerm;29409;49.306;8.500;2022-12-29T07:41:06;48.27;36.91;68.76;;
43787;Laerm;29409;49.306;8.500;2022-12-29T07:42:45;41.27;37.70;44.54;;
43787;Laerm;29409;49.306;8.500;2022-12-29T07:44:23;43.65;37.52;58.00;;
43787;Laerm;29409;49.306;8.500;2022-12-29T07:46:01;41.77;37.70;52.28;;
43787;Laerm;29409;49.306;8.500;2022-12-29T07:47:39;44.88;38.21;56.89;;
43787;Laerm;29409;49.306;8.500;2022-12-29T07:49:17;45.53;38.21;66.43;;
43787;Laerm;29409;49.306;8.500;2022-12-29T07:50:56;41.40;37.88;49.77;;
43787;Laerm;29409;49.306;8.500;2022-12-29T07:52:34;42.01;37.70;50.96;;
43787;Laerm;29409;49.306;8.500;2022-12-29T07:54:12;41.16;36.69;47.24;;
43787;Laerm;29409;49.306;8.500;2022-12-29T07:55:50;42.62;36.69;66.74;;
43787;Laerm;29409;49.306;8.500;2022-12-29T07:57:28;43.30;38.52;62.85;;
43787;Laerm;29409;49.306;8.500;2022-12-29T07:59:07;40.93;36.45;45.48;;
43787;Laerm;29409;49.306;8.500;2022-12-29T08:00:45;43.41;37.52;55.46;;
43787;Laerm;29409;49.306;8.500;2022-12-29T08:02:24;40.11;35.66;44.58;;
43787;Laerm;29409;49.306;8.500;2022-12-29T08:04:03;43.42;36.20;51.63;;
43787;Laerm;29409;49.306;8.500;2022-12-29T08:05:41;44.04;38.05;57.31;;
43787;Laerm;29409;49.306;8.500;2022-12-29T08:07:19;41.13;37.12;48.12;;
43787;Laerm;29409;49.306;8.500;2022-12-29T08:08:58;40.81;36.91;44.35;;
43787;Laerm;29409;49.306;8.500;2022-12-29T08:10:37;41.33;37.32;54.55;;
43787;Laerm;29409;49.306;8.500;2022-12-29T08:12:15;44.09;38.95;68.58;;
43787;Laerm;29409;49.306;8.500;2022-12-29T08:13:53;42.99;38.21;55.88;;
43787;Laerm;29409;49.306;8.500;2022-12-29T08:15:30;44.49;38.05;57.93;;
43787;Laerm;29409;49.306;8.500;2022-12-29T08:17:08;43.33;37.70;55.63;;
43787;Laerm;29409;49.306;8.500;2022-12-29T08:18:47;41.43;37.88;51.98;;
43787;Laerm;29409;49.306;8.500;2022-12-29T08:20:25;42.94;37.70;52.28;;
43787;Laerm;29409;49.306;8.500;2022-12-29T08:22:03;41.03;38.05;45.42;;
43787;Laerm;29409;49.306;8.500;2022-12-29T08:23:42;43.95;38.81;56.97;;
43787;Laerm;29409;49.306;8.500;2022-12-29T08:25:20;44.60;37.12;62.77;;
43787;Laerm;29409;49.306;8.500;2022-12-29T08:26:57;41.59;37.70;47.91;;
43787;Laerm;29409;49.306;8.500;2022-12-29T08:28:35;41.53;37.32;50.91;;
43787;Laerm;29409;49.306;8.500;2022-12-29T08:30:13;41.42;36.69;49.04;;
43787;Laerm;29409;49.306;8.500;2022-12-29T08:31:51;42.06;38.52;48.63;;
43787;Laerm;29409;49.306;8.500;2022-12-29T08:33:29;41.45;37.70;46.20;;
43787;Laerm;29409;49.306;8.500;2022-12-29T08:35:07;41.10;36.45;47.52;;
43787;Laerm;29409;49.306;8.500;2022-12-29T08:36:45;42.38;38.21;57.50;;
43787;Laerm;29409;49.306;8.500;2022-12-29T08:38:23;41.76;38.05;61.61;;
43787;Laerm;29409;49.306;8.500;2022-12-29T08:40:01;41.86;38.05;48.57;;
43787;Laerm;29409;49.306;8.500;2022-12-29T08:41:41;41.16;37.32;53.06;;
43787;Laerm;29409;49.306;8.500;2022-12-29T08:43:19;42.01;38.18;45.89;;
43787;Laerm;29409;49.306;8.500;2022-12-29T08:44:57;44.30;38.95;56.04;;
43787;Laerm;29409;49.306;8.500;2022-12-29T08:46:35;41.57;38.21;47.67;;
43787;Laerm;29409;49.306;8.500;2022-12-29T08:48:14;43.75;38.37;52.85;;
43787;Laerm;29409;49.306;8.500;2022-12-29T08:49:55;42.91;38.21;51.97;;
43787;Laerm;29409;49.306;8.500;2022-12-29T08:51:33;42.45;37.70;55.30;;
43787;Laerm;29409;49.306;8.500;2022-12-29T08:53:11;43.08;39.92;53.03;;
43787;Laerm;29409;49.306;8.500;2022-12-29T08:54:49;44.45;38.95;69.02;;
43787;Laerm;29409;49.306;8.500;2022-12-29T08:56:30;45.57;39.08;60.26;;
43787;Laerm;29409;49.306;8.500;2022-12-29T08:58:08;53.19;43.72;66.59;;
43787;Laerm;29409;49.306;8.500;2022-12-29T08:59:46;59.51;41.46;80.94;;
43787;Laerm;29409;49.306;8.500;2022-12-29T09:01:23;46.17;38.81;63.65;;
43787;Laerm;29409;49.306;8.500;2022-12-29T09:03:01;41.97;35.94;50.82;;
43787;Laerm;29409;49.306;8.500;2022-12-29T09:04:39;45.56;38.21;63.13;;
43787;Laerm;29409;49.306;8.500;2022-12-29T09:06:17;44.04;38.52;60.77;;
43787;Laerm;29409;49.306;8.500;2022-12-29T09:07:55;41.78;38.52;47.14;;
43787;Laerm;29409;49.306;8.500;2022-12-29T09:09:33;42.99;38.95;52.55;;
43787;Laerm;29409;49.306;8.500;2022-12-29T09:11:12;45.34;39.21;57.95;;
43787;Laerm;29409;49.306;8.500;2022-12-29T09:12:51;42.43;39.08;59.50;;
43787;Laerm;29409;49.306;8.500;2022-12-29T09:14:29;42.25;38.37;57.81;;
43787;Laerm;29409;49.306;8.500;2022-12-29T09:16:07;47.15;38.32;64.50;;
43787;Laerm;29409;49.306;8.500;2022-12-29T09:17:45;42.64;38.37;53.37;;
43787;Laerm;29409;49.306;8.500;2022-12-29T09:19:23;44.12;38.21;53.99;;
43787;Laerm;29409;49.306;8.500;2022-12-29T09:21:02;44.80;38.37;62.63;;
43787;Laerm;29409;49.306;8.500;2022-12-29T09:22:40;42.28;38.67;59.44;;
43787;Laerm;29409;49.306;8.500;2022-12-29T09:24:19;42.43;38.37;53.54;;
43787;Laerm;29409;49.306;8.500;2022-12-29T09:25:57;43.65;38.37;59.44;;
43787;Laerm;29409;49.306;8.500;2022-12-29T09:27:35;42.16;37.88;52.17;;
43787;Laerm;29409;49.306;8.500;2022-12-29T09:29:13;41.59;38.05;48.28;;
43787;Laerm;29409;49.306;8.500;2022-12-29T09:30:51;41.65;38.21;44.62;;
43787;Laerm;29409;49.306;8.500;2022-12-29T09:32:29;42.51;39.21;53.44;;
43787;Laerm;29409;49.306;8.500;2022-12-29T09:34:07;42.32;38.81;45.66;;
43787;Laerm;29409;49.306;8.500;2022-12-29T09:35:48;43.14;38.81;60.68;;
43787;Laerm;29409;49.306;8.500;2022-12-29T09:37:27;42.28;38.81;59.36;;
43787;Laerm;29409;49.306;8.500;2022-12-29T09:39:06;43.29;39.21;61.76;;
43787;Laerm;29409;49.306;8.500;2022-12-29T09:40:44;44.16;38.21;58.01;;
43787;Laerm;29409;49.306;8.500;2022-12-29T09:42:45;44.36;38.81;64.13;;
43787;Laerm;29409;49.306;8.500;2022-12-29T09:46:15;41.56;38.52;50.00;;
43787;Laerm;29409;49.306;8.500;2022-12-29T09:47:57;45.30;38.81;63.79;;
43787;Laerm;29409;49.306;8.500;2022-12-29T09:50:20;42.29;37.70;58.93;;
43787;Laerm;29409;49.306;8.500;2022-12-29T09:51:37;46.66;39.58;67.47;;
43787;Laerm;29409;49.306;8.500;2022-12-29T09:53:19;42.92;38.67;56.34;;
43787;Laerm;29409;49.306;8.500;2022-12-29T09:56:36;45.71;37.52;64.12;;
43787;Laerm;29409;49.306;8.500;2022-12-29T10:01:48;44.02;38.47;59.22;;
43787;Laerm;29409;49.306;8.500;2022-12-29T10:07:03;43.26;37.12;56.26;;